createdAt,value
2023-04-26T00:00:50.682Z,33.61
2023-04-26T00:03:17.710Z,33.08
2023-04-26T00:05:44.835Z,32.74
2023-04-26T00:08:11.924Z,32.28
2023-04-26T00:10:40.862Z,32.30
2023-04-26T00:13:08.298Z,32.37
2023-04-26T00:15:35.217Z,32.23
2023-04-26T00:18:01.960Z,32.41
2023-04-26T00:20:29.042Z,32.34
2023-04-26T00:22:55.915Z,32.69
2023-04-26T00:25:22.680Z,33.75
2023-04-26T00:27:50.053Z,34.20
2023-04-26T00:30:16.810Z,34.11
2023-04-26T00:32:44.186Z,34.35
2023-04-26T00:35:11.087Z,34.60
2023-04-26T00:37:37.851Z,34.63
2023-04-26T00:40:09.187Z,34.60
2023-04-26T00:42:36.118Z,34.78
2023-04-26T00:45:04.086Z,34.90
2023-04-26T00:47:31.320Z,34.68
2023-04-26T00:49:58.404Z,34.35
2023-04-26T00:52:25.648Z,34.65
2023-04-26T00:54:52.799Z,33.85
2023-04-26T00:57:19.598Z,33.49
2023-04-26T00:59:46.362Z,33.06
2023-04-26T01:02:16.334Z,33.42
2023-04-26T01:04:45.399Z,34.34
2023-04-26T01:07:12.112Z,33.12
2023-04-26T01:09:38.864Z,33.48
2023-04-26T01:12:06.729Z,33.78
2023-04-26T01:14:36.691Z,33.72
2023-04-26T01:17:03.801Z,33.67
2023-04-26T01:19:30.743Z,34.32
2023-04-26T01:21:57.530Z,34.57
2023-04-26T01:24:24.343Z,34.05
2023-04-26T01:26:51.711Z,33.54
2023-04-26T01:29:21.385Z,33.38
2023-04-26T01:31:48.469Z,33.37
2023-04-26T01:34:15.806Z,33.50
2023-04-26T01:36:46.143Z,33.60
2023-04-26T01:39:13.638Z,33.87
2023-04-26T01:41:40.614Z,34.05
2023-04-26T01:44:07.450Z,33.82
2023-04-26T01:46:34.214Z,33.53
2023-04-26T01:49:01.148Z,33.16
2023-04-26T01:51:30.258Z,33.25
2023-04-26T01:53:57.096Z,33.33
2023-04-26T01:56:25.257Z,34.09
2023-04-26T01:58:53.396Z,34.44
2023-04-26T02:01:20.329Z,34.57
2023-04-26T02:03:47.109Z,34.98
2023-04-26T02:06:13.956Z,35.15
2023-04-26T02:08:40.893Z,35.45
2023-04-26T02:11:07.601Z,35.79
2023-04-26T02:13:36.133Z,35.76
2023-04-26T02:16:03.730Z,36.11
2023-04-26T02:18:30.742Z,36.16
2023-04-26T02:20:57.579Z,36.51
2023-04-26T02:23:24.833Z,36.32
2023-04-26T02:25:51.982Z,37.16
2023-04-26T02:28:18.722Z,37.02
2023-04-26T02:30:45.560Z,35.91
2023-04-26T02:33:12.711Z,36.04
2023-04-26T02:35:39.529Z,35.64
2023-04-26T02:38:07.383Z,36.12
2023-04-26T02:40:34.185Z,36.60
2023-04-26T02:43:01.206Z,36.09
2023-04-26T02:45:28.260Z,36.05
2023-04-26T02:47:55.064Z,36.06
2023-04-26T02:50:22.046Z,36.47
2023-04-26T02:52:49.262Z,36.23
2023-04-26T02:55:16.359Z,35.96
2023-04-26T02:57:43.220Z,35.75
2023-04-26T03:00:14.128Z,35.19
2023-04-26T03:02:41.284Z,34.87
2023-04-26T03:05:09.675Z,34.80
2023-04-26T03:07:37.107Z,34.73
2023-04-26T03:10:05.475Z,34.67
2023-04-26T03:12:32.415Z,34.75
2023-04-26T03:14:59.996Z,34.80
2023-04-26T03:17:26.867Z,34.99
2023-04-26T03:19:53.957Z,34.90
2023-04-26T03:22:21.204Z,35.03
2023-04-26T03:24:49.207Z,35.28
2023-04-26T03:27:16.647Z,35.26
2023-04-26T03:29:44.359Z,35.69
2023-04-26T03:32:11.678Z,35.67
2023-04-26T03:34:38.591Z,35.65
2023-04-26T03:37:05.773Z,35.71
2023-04-26T03:39:32.931Z,35.70
2023-04-26T03:42:01.314Z,36.01
2023-04-26T03:44:29.280Z,36.24
2023-04-26T03:46:57.837Z,36.08
2023-04-26T03:49:24.701Z,36.82
2023-04-26T03:51:51.599Z,36.39
2023-04-26T03:54:18.971Z,36.96
2023-04-26T03:56:45.750Z,37.15
2023-04-26T03:59:12.561Z,37.25
2023-04-26T04:01:39.354Z,36.69
2023-04-26T04:04:06.428Z,36.52
2023-04-26T04:06:33.389Z,36.44
2023-04-26T04:09:01.087Z,36.81
2023-04-26T04:11:27.982Z,36.64
2023-04-26T04:13:54.758Z,36.67
2023-04-26T04:16:22.054Z,36.41
2023-04-26T04:18:49.181Z,36.64
2023-04-26T04:21:15.984Z,35.84
2023-04-26T04:23:44.407Z,35.86
2023-04-26T04:26:12.762Z,36.06
2023-04-26T04:28:41.705Z,36.43
2023-04-26T04:31:09.921Z,36.56
2023-04-26T04:33:37.606Z,36.67
2023-04-26T04:36:05.141Z,36.26
2023-04-26T04:38:31.932Z,36.02
2023-04-26T04:40:58.738Z,36.43
2023-04-26T04:43:25.688Z,36.34
2023-04-26T04:45:53.970Z,36.01
2023-04-26T04:48:21.524Z,36.02
2023-04-26T04:50:49.508Z,36.44
2023-04-26T04:53:16.626Z,36.30
2023-04-26T04:55:43.362Z,36.55
2023-04-26T04:58:12.361Z,36.27
2023-04-26T05:00:39.759Z,35.93
2023-04-26T05:03:16.577Z,35.66
2023-04-26T05:05:43.696Z,35.45
2023-04-26T05:08:10.607Z,35.24
2023-04-26T05:10:37.756Z,35.12
2023-04-26T05:13:05.643Z,34.53
2023-04-26T05:15:32.455Z,34.13
2023-04-26T05:17:59.732Z,33.65
2023-04-26T05:20:27.057Z,33.24
2023-04-26T05:22:54.977Z,33.02
2023-04-26T05:25:22.977Z,32.82
2023-04-26T05:30:21.344Z,39.28
2023-04-26T05:33:13.951Z,36.35
2023-04-26T05:35:47.344Z,36.54
2023-04-26T05:38:15.347Z,36.37
2023-04-26T05:40:42.170Z,36.66
2023-04-26T05:43:08.948Z,36.56
2023-04-26T05:45:37.346Z,36.62
2023-04-26T05:48:04.434Z,36.92
2023-04-26T05:50:37.747Z,37.13
2023-04-26T05:53:07.222Z,37.42
2023-04-26T05:55:33.976Z,37.30
2023-04-26T05:58:01.017Z,36.57
2023-04-26T06:00:29.000Z,36.34
2023-04-26T06:02:56.175Z,36.38
2023-04-26T06:05:23.363Z,35.88
2023-04-26T06:07:51.968Z,35.16
2023-04-26T06:10:18.763Z,35.12
2023-04-26T06:12:46.872Z,35.40
2023-04-26T06:15:16.618Z,35.06
2023-04-26T06:17:44.195Z,34.96
2023-04-26T06:20:11.115Z,35.17
2023-04-26T06:22:38.213Z,34.81
2023-04-26T06:25:06.045Z,34.48
2023-04-26T06:27:33.858Z,34.18
2023-04-26T06:30:00.641Z,34.07
2023-04-26T06:32:27.530Z,33.93
2023-04-26T06:34:55.011Z,33.64
2023-04-26T06:37:21.729Z,33.26
2023-04-26T06:39:49.107Z,32.71
2023-04-26T06:42:15.930Z,32.06
2023-04-26T06:45:10.033Z,32.35
2023-04-26T06:47:36.904Z,32.34
2023-04-26T06:50:04.971Z,32.71
2023-04-26T06:52:31.741Z,32.69
2023-04-26T06:55:02.138Z,32.12
2023-04-26T06:57:28.925Z,32.17
2023-04-26T06:59:55.806Z,32.03
2023-04-26T07:02:24.582Z,31.66
2023-04-26T07:04:52.290Z,31.58
2023-04-26T07:07:19.252Z,31.89
2023-04-26T07:09:46.264Z,31.65
2023-04-26T07:12:13.672Z,33.02
2023-04-26T07:14:41.523Z,31.86
2023-04-26T07:17:08.786Z,31.62
2023-04-26T07:19:35.702Z,31.53
2023-04-26T07:22:02.538Z,31.00
2023-04-26T07:24:29.306Z,30.63
2023-04-26T07:26:56.854Z,30.69
2023-04-26T07:29:24.068Z,30.77
2023-04-26T07:31:50.940Z,30.71
2023-04-26T07:34:17.680Z,30.57
2023-04-26T07:36:44.433Z,30.13
2023-04-26T07:39:11.857Z,30.05
2023-04-26T07:41:38.681Z,30.17
2023-04-26T07:44:05.468Z,29.96
2023-04-26T07:46:35.186Z,28.77
2023-04-26T07:49:01.985Z,28.00
2023-04-26T07:51:28.826Z,28.16
2023-04-26T07:53:56.104Z,28.03
2023-04-26T07:56:24.262Z,27.59
2023-04-26T07:58:51.783Z,27.29
2023-04-26T08:01:18.550Z,27.71
2023-04-26T08:03:45.900Z,27.48
2023-04-26T08:06:13.082Z,27.13
2023-04-26T08:08:45.635Z,27.00
2023-04-26T08:11:12.385Z,27.13
2023-04-26T08:13:39.211Z,27.58
2023-04-26T08:16:06.546Z,27.42
2023-04-26T08:18:33.733Z,27.94
2023-04-26T08:21:00.572Z,28.14
2023-04-26T08:23:28.440Z,27.48
2023-04-26T08:25:55.312Z,26.79
2023-04-26T08:28:22.211Z,26.19
2023-04-26T08:30:49.100Z,26.10
2023-04-26T08:33:16.231Z,25.39
2023-04-26T08:35:42.970Z,25.01
2023-04-26T08:38:09.717Z,24.60
2023-04-26T08:40:36.687Z,24.48
2023-04-26T08:43:03.464Z,24.56
2023-04-26T08:45:30.226Z,25.13
2023-04-26T08:48:04.952Z,25.42
2023-04-26T08:50:33.640Z,26.06
2023-04-26T08:53:03.956Z,26.25
2023-04-26T08:55:31.100Z,26.05
2023-04-26T08:57:58.008Z,26.19
2023-04-26T09:00:25.050Z,26.30
2023-04-26T09:02:53.640Z,27.12
2023-04-26T09:05:24.394Z,27.55
2023-04-26T09:07:53.028Z,27.37
2023-04-26T09:10:23.497Z,27.71
2023-04-26T09:12:52.482Z,27.76
2023-04-26T09:15:21.410Z,27.96
2023-04-26T09:17:49.734Z,27.63
2023-04-26T09:20:25.324Z,27.85
2023-04-26T09:23:13.139Z,28.18
2023-04-26T09:25:39.861Z,28.25
2023-04-26T09:28:19.790Z,28.45
2023-04-26T09:30:46.597Z,28.76
2023-04-26T09:33:13.469Z,28.90
2023-04-26T09:35:41.937Z,29.26
2023-04-26T09:38:13.568Z,29.21
2023-04-26T09:40:48.406Z,29.49
2023-04-26T09:43:22.065Z,30.16
2023-04-26T09:46:07.196Z,30.23
2023-04-26T09:48:34.764Z,31.01
2023-04-26T09:51:04.609Z,31.77
2023-04-26T09:53:34.833Z,32.72
2023-04-26T09:56:08.628Z,32.92
2023-04-26T09:58:39.806Z,33.45
2023-04-26T10:01:08.106Z,33.44
2023-04-26T10:03:35.716Z,33.07
2023-04-26T10:06:02.960Z,33.48
2023-04-26T10:08:31.534Z,33.90
2023-04-26T10:10:58.337Z,33.13
2023-04-26T10:13:25.098Z,32.55
2023-04-26T10:15:52.099Z,33.05
2023-04-26T10:18:18.834Z,33.42
2023-04-26T10:20:48.030Z,33.65
2023-04-26T10:23:25.578Z,33.64
2023-04-26T10:25:53.102Z,33.20
2023-04-26T10:28:40.100Z,32.65
2023-04-26T10:31:10.336Z,32.93
2023-04-26T10:33:37.325Z,32.48
2023-04-26T10:36:08.589Z,32.18
2023-04-26T10:38:36.765Z,31.95
2023-04-26T10:41:29.351Z,31.24
2023-04-26T10:43:56.436Z,30.99
2023-04-26T10:46:37.515Z,30.98
2023-04-26T10:49:14.855Z,31.39
2023-04-26T10:51:41.800Z,32.04
2023-04-26T10:54:09.190Z,31.71
2023-04-26T10:56:39.109Z,31.96
2023-04-26T10:59:36.379Z,31.42
2023-04-26T11:02:10.941Z,30.25
2023-04-26T11:04:53.350Z,30.83
2023-04-26T11:07:38.868Z,30.41
2023-04-26T11:10:12.499Z,30.41
2023-04-26T11:12:42.087Z,30.04
2023-04-26T11:15:09.166Z,30.65
2023-04-26T11:17:38.122Z,30.66
2023-04-26T11:20:10.007Z,30.41
2023-04-26T11:22:40.072Z,30.56
2023-04-26T11:25:07.082Z,31.14
2023-04-26T11:27:33.855Z,31.25
2023-04-26T11:30:04.507Z,30.81
2023-04-26T11:32:31.296Z,30.35
2023-04-26T11:35:00.311Z,31.29
2023-04-26T11:37:27.169Z,31.05
2023-04-26T11:39:53.924Z,30.79
2023-04-26T11:42:24.952Z,30.88
2023-04-26T11:44:56.313Z,30.86
2023-04-26T11:47:23.790Z,30.85
2023-04-26T11:49:50.491Z,29.87
2023-04-26T11:52:17.214Z,30.20
2023-04-26T11:54:44.569Z,30.87
2023-04-26T11:57:17.642Z,30.12
2023-04-26T11:59:45.008Z,30.79
2023-04-26T12:02:11.872Z,31.29
2023-04-26T12:04:41.109Z,31.80
2023-04-26T12:07:08.575Z,31.53
2023-04-26T12:09:36.772Z,29.93
2023-04-26T12:12:07.647Z,30.25
2023-04-26T12:14:34.889Z,30.21
2023-04-26T12:17:03.361Z,30.07
2023-04-26T12:19:34.960Z,30.67
2023-04-26T12:22:01.865Z,30.39
2023-04-26T12:24:33.359Z,30.23
2023-04-26T12:27:04.600Z,30.12
2023-04-26T12:29:32.169Z,29.68
2023-04-26T12:31:59.534Z,30.59
2023-04-26T12:34:26.413Z,30.39
2023-04-26T12:36:53.513Z,29.95
2023-04-26T12:39:20.419Z,30.86
2023-04-26T12:41:47.325Z,30.87
2023-04-26T12:44:15.634Z,30.72
2023-04-26T12:46:42.600Z,30.83
2023-04-26T12:49:09.527Z,30.21
2023-04-26T12:51:36.375Z,31.37
2023-04-26T12:54:03.657Z,30.82
2023-04-26T12:56:30.521Z,31.32
2023-04-26T12:58:57.316Z,31.06
2023-04-26T13:01:24.182Z,30.48
2023-04-26T13:03:51.188Z,31.38
2023-04-26T13:06:18.205Z,31.77
2023-04-26T13:08:45.078Z,32.81
2023-04-26T13:11:12.092Z,33.45
2023-04-26T13:13:43.935Z,33.20
2023-04-26T13:16:13.026Z,33.56
2023-04-26T13:18:40.691Z,34.27
2023-04-26T13:21:10.618Z,35.00
2023-04-26T13:23:37.462Z,35.99
2023-04-26T13:26:07.139Z,35.97
2023-04-26T13:28:36.153Z,36.60
2023-04-26T13:31:03.338Z,36.23
2023-04-26T13:33:30.464Z,36.12
2023-04-26T13:35:57.204Z,36.94
2023-04-26T13:38:24.239Z,36.84
2023-04-26T13:40:51.266Z,37.55
2023-04-26T13:43:18.964Z,37.53
2023-04-26T13:45:45.924Z,37.42
2023-04-26T13:48:13.196Z,39.04
2023-04-26T13:50:40.233Z,38.73
2023-04-26T13:53:07.499Z,37.69
2023-04-26T13:55:34.247Z,38.15
2023-04-26T13:58:01.136Z,37.77
2023-04-26T14:00:28.170Z,38.53
2023-04-26T14:02:55.136Z,38.29
2023-04-26T14:05:23.780Z,38.09
2023-04-26T14:10:17.639Z,38.66
2023-04-26T14:12:44.386Z,38.33
2023-04-26T14:15:12.327Z,39.02
2023-04-26T14:17:39.179Z,39.60
2023-04-26T14:20:08.451Z,39.66
2023-04-26T14:22:35.909Z,39.30
2023-04-26T14:25:02.674Z,40.17
2023-04-26T14:27:29.502Z,39.72
2023-04-26T14:29:56.352Z,38.87
2023-04-26T14:32:23.269Z,38.98
2023-04-26T14:34:50.070Z,38.91
2023-04-26T14:37:16.828Z,38.93
2023-04-26T14:39:43.621Z,40.21
2023-04-26T14:42:16.701Z,40.99
2023-04-26T14:44:44.115Z,41.96
2023-04-26T14:47:11.094Z,42.61
2023-04-26T14:49:37.868Z,41.79
2023-04-26T14:52:04.879Z,43.11
2023-04-26T14:54:31.798Z,43.14
2023-04-26T14:56:58.476Z,42.79
2023-04-26T14:59:25.304Z,42.00
2023-04-26T15:01:53.481Z,41.08
2023-04-26T15:04:20.712Z,41.49
2023-04-26T15:06:47.619Z,42.03
2023-04-26T15:09:14.923Z,42.20
2023-04-26T15:11:41.638Z,42.69
2023-04-26T15:14:08.818Z,42.60
2023-04-26T15:16:35.668Z,42.36
2023-04-26T15:19:02.595Z,42.45
2023-04-26T15:21:29.377Z,41.99
2023-04-26T15:23:59.252Z,41.51
2023-04-26T15:26:26.143Z,41.73
2023-04-26T15:28:53.349Z,41.56
2023-04-26T15:31:20.864Z,40.72
2023-04-26T15:33:48.362Z,40.35
2023-04-26T15:36:16.465Z,41.15
2023-04-26T15:38:45.561Z,40.57
2023-04-26T15:41:12.381Z,40.06
2023-04-26T15:43:39.163Z,39.44
2023-04-26T15:46:06.011Z,38.41
2023-04-26T15:48:32.903Z,38.69
2023-04-26T15:50:59.638Z,39.12
2023-04-26T15:53:26.984Z,38.91
2023-04-26T15:55:53.737Z,38.58
2023-04-26T15:58:20.463Z,38.07
2023-04-26T16:00:47.267Z,38.23
2023-04-26T16:03:14.087Z,39.00
2023-04-26T16:05:41.036Z,38.56
2023-04-26T16:08:07.785Z,38.11
2023-04-26T16:10:38.194Z,38.49
2023-04-26T16:13:05.222Z,37.12
2023-04-26T16:15:31.979Z,37.67
2023-04-26T16:17:58.787Z,37.29
2023-04-26T16:20:26.148Z,37.86
2023-04-26T16:22:53.136Z,37.40
2023-04-26T16:25:19.853Z,37.36
2023-04-26T16:27:46.668Z,37.15
2023-04-26T16:30:13.838Z,37.53
2023-04-26T16:32:40.836Z,36.87
2023-04-26T16:35:08.980Z,36.92
2023-04-26T16:37:35.906Z,36.77
2023-04-26T16:40:04.923Z,37.20
2023-04-26T16:42:31.737Z,36.77
2023-04-26T16:44:58.574Z,37.22
2023-04-26T16:47:25.409Z,37.10
2023-04-26T16:49:52.357Z,37.04
2023-04-26T16:52:19.126Z,37.12
2023-04-26T16:54:45.914Z,36.68
2023-04-26T16:57:14.154Z,37.83
2023-04-26T16:59:40.938Z,37.81
2023-04-26T17:02:07.909Z,38.59
2023-04-26T17:04:34.875Z,39.07
2023-04-26T17:07:01.882Z,37.80
2023-04-26T17:09:28.633Z,37.18
2023-04-26T17:11:55.500Z,37.27
2023-04-26T17:14:22.362Z,37.37
2023-04-26T17:16:49.167Z,37.47
2023-04-26T17:19:15.901Z,37.34
2023-04-26T17:21:42.713Z,37.62
2023-04-26T17:24:09.561Z,37.24
2023-04-26T17:26:36.968Z,36.69
2023-04-26T17:29:03.796Z,37.18
2023-04-26T17:31:30.773Z,37.18
2023-04-26T17:33:57.562Z,36.93
2023-04-26T17:36:24.534Z,37.37
2023-04-26T17:38:51.387Z,37.15
2023-04-26T17:41:18.319Z,37.09
2023-04-26T17:43:45.497Z,36.89
2023-04-26T17:46:53.514Z,45.55
2023-04-26T17:49:22.338Z,42.01
2023-04-26T17:51:49.065Z,42.20
2023-04-26T17:54:16.062Z,41.15
2023-04-26T17:56:43.641Z,40.93
2023-04-26T17:59:10.428Z,41.07
2023-04-26T18:01:37.367Z,41.47
2023-04-26T18:04:04.569Z,41.99
2023-04-26T18:06:31.877Z,42.01
2023-04-26T18:08:58.598Z,41.44
2023-04-26T18:11:26.117Z,41.47
2023-04-26T18:13:53.293Z,41.34
2023-04-26T18:16:20.122Z,41.76
2023-04-26T18:18:46.949Z,41.58
2023-04-26T18:21:13.864Z,41.61
2023-04-26T18:23:42.120Z,40.97
2023-04-26T18:26:09.741Z,40.84
2023-04-26T18:28:37.588Z,40.67
2023-04-26T18:31:04.446Z,40.40
2023-04-26T18:33:32.093Z,40.70
2023-04-26T18:35:58.828Z,40.59
2023-04-26T18:38:25.633Z,40.59
2023-04-26T18:41:24.224Z,41.08
2023-04-26T18:43:51.083Z,41.06
2023-04-26T18:46:17.913Z,41.08
2023-04-26T18:48:44.681Z,40.85
2023-04-26T18:51:11.418Z,40.91
2023-04-26T18:53:41.180Z,40.91
2023-04-26T18:56:07.964Z,40.57
2023-04-26T18:58:34.782Z,40.20
2023-04-26T19:01:01.908Z,40.64
2023-04-26T19:03:28.866Z,40.99
2023-04-26T19:05:55.888Z,40.75
2023-04-26T19:08:24.014Z,40.72
2023-04-26T19:10:50.782Z,40.45
2023-04-26T19:13:18.769Z,40.71
2023-04-26T19:15:45.870Z,41.24
2023-04-26T19:18:12.704Z,40.90
2023-04-26T19:20:40.008Z,41.21
2023-04-26T19:23:06.908Z,40.52
2023-04-26T19:25:34.390Z,40.54
2023-04-26T19:28:01.108Z,40.72
2023-04-26T19:30:27.854Z,40.54
2023-04-26T19:32:54.872Z,40.53
2023-04-26T19:35:21.761Z,41.58
2023-04-26T19:37:48.532Z,42.92
2023-04-26T19:40:15.423Z,43.81
2023-04-26T19:42:42.234Z,42.77
2023-04-26T19:45:09.407Z,42.43
2023-04-26T19:47:36.197Z,41.68
2023-04-26T19:50:04.060Z,41.46
2023-04-26T19:52:31.036Z,41.73
2023-04-26T19:54:57.795Z,42.16
2023-04-26T19:57:24.644Z,42.09
2023-04-26T19:59:51.347Z,42.33
2023-04-26T20:02:18.184Z,42.79
2023-04-26T20:04:45.123Z,42.64
2023-04-26T20:07:11.963Z,42.92
2023-04-26T20:09:39.799Z,43.16
2023-04-26T20:12:07.055Z,43.65
2023-04-26T20:14:33.997Z,43.46
2023-04-26T20:17:02.475Z,43.00
2023-04-26T20:19:29.615Z,42.67
2023-04-26T20:21:56.683Z,42.65
2023-04-26T20:24:24.304Z,42.66
2023-04-26T20:26:51.078Z,42.42
2023-04-26T20:29:17.776Z,43.00
2023-04-26T20:31:44.581Z,43.51
2023-04-26T20:34:11.830Z,42.87
2023-04-26T20:36:38.655Z,42.53
2023-04-26T20:39:05.750Z,43.86
2023-04-26T20:41:32.885Z,43.92
2023-04-26T20:43:59.643Z,44.01
2023-04-26T20:46:27.099Z,44.16
2023-04-26T20:48:54.069Z,43.78
2023-04-26T20:51:20.842Z,43.03
2023-04-26T20:53:47.695Z,43.29
2023-04-26T20:56:14.413Z,43.29
2023-04-26T20:58:41.197Z,43.56
2023-04-26T21:01:09.390Z,43.58
2023-04-26T21:03:36.492Z,43.22
2023-04-26T21:06:03.517Z,42.39
2023-04-26T21:08:30.254Z,42.21
2023-04-26T21:10:57.133Z,43.27
2023-04-26T21:13:24.079Z,43.32
2023-04-26T21:15:50.982Z,42.47
2023-04-26T21:18:18.059Z,42.52
2023-04-26T21:20:44.963Z,42.26
2023-04-26T21:23:11.963Z,42.22
2023-04-26T21:25:38.804Z,42.01
2023-04-26T21:28:06.060Z,42.08
2023-04-26T21:30:33.406Z,41.60
2023-04-26T21:33:00.261Z,41.93
2023-04-26T21:35:27.201Z,41.64
2023-04-26T21:37:54.136Z,41.75
2023-04-26T21:40:21.018Z,41.89
2023-04-26T21:43:04.037Z,41.86
2023-04-26T21:45:32.183Z,41.96
2023-04-26T21:47:59.101Z,41.67
2023-04-26T21:50:26.069Z,41.66
2023-04-26T21:52:52.903Z,41.73
2023-04-26T21:55:19.753Z,42.00
2023-04-26T21:57:46.727Z,42.50
2023-04-26T22:00:14.172Z,42.42
2023-04-26T22:02:41.507Z,42.24
2023-04-26T22:05:08.653Z,42.07
2023-04-26T22:07:35.614Z,42.28
2023-04-26T22:10:03.067Z,42.43
2023-04-26T22:12:29.865Z,42.29
2023-04-26T22:14:57.062Z,42.62
2023-04-26T22:17:24.029Z,43.07
2023-04-26T22:19:51.585Z,43.04
2023-04-26T22:22:18.404Z,42.80
2023-04-26T22:24:45.484Z,42.75
2023-04-26T22:27:12.495Z,42.76
2023-04-26T22:29:39.336Z,42.64
2023-04-26T22:32:06.436Z,42.51
2023-04-26T22:34:33.331Z,42.30
2023-04-26T22:37:13.183Z,42.07
2023-04-26T22:39:46.997Z,42.01
2023-04-26T22:42:13.974Z,42.47
2023-04-26T22:44:42.046Z,42.32
2023-04-26T22:47:08.857Z,42.21
2023-04-26T22:49:35.667Z,42.04
2023-04-26T22:52:09.782Z,42.51
2023-04-26T22:54:44.135Z,42.07
2023-04-26T22:57:11.477Z,42.10
2023-04-26T22:59:38.455Z,41.99
2023-04-26T23:02:05.334Z,41.77
2023-04-26T23:04:32.575Z,41.74
2023-04-26T23:06:59.492Z,41.73
2023-04-26T23:09:26.420Z,41.27
2023-04-26T23:11:53.555Z,41.11
2023-04-26T23:14:20.383Z,41.13
2023-04-26T23:16:47.316Z,40.76
2023-04-26T23:19:14.576Z,40.38
2023-04-26T23:21:41.815Z,40.26
2023-04-26T23:24:08.676Z,40.44
2023-04-26T23:26:35.531Z,40.46
2023-04-26T23:29:02.349Z,40.59
2023-04-26T23:31:29.274Z,40.93
2023-04-26T23:33:56.366Z,40.76
2023-04-26T23:36:23.315Z,40.49
2023-04-26T23:38:50.148Z,40.53
2023-04-26T23:41:16.960Z,40.14
2023-04-26T23:43:43.978Z,39.97
2023-04-26T23:46:11.026Z,40.04
2023-04-26T23:48:37.936Z,40.07
2023-04-26T23:51:05.162Z,39.67
2023-04-26T23:53:32.030Z,40.00
2023-04-26T23:55:58.849Z,39.80
2023-04-26T23:58:26.023Z,39.78
